createdAt,value
2023-05-14T00:00:16.450Z,12.16
2023-05-14T00:02:43.875Z,12.14
2023-05-14T00:05:11.136Z,12.09
2023-05-14T00:07:38.456Z,12.14
2023-05-14T00:10:06.138Z,12.15
2023-05-14T00:12:33.355Z,12.24
2023-05-14T00:15:00.885Z,12.19
2023-05-14T00:17:28.273Z,12.15
2023-05-14T00:19:55.605Z,12.16
2023-05-14T00:22:22.858Z,12.19
2023-05-14T00:24:50.102Z,12.15
2023-05-14T00:27:17.368Z,12.09
2023-05-14T00:29:45.824Z,12.12
2023-05-14T00:32:13.150Z,12.15
2023-05-14T00:34:40.440Z,12.08
2023-05-14T00:37:07.775Z,12.09
2023-05-14T00:39:35.028Z,12.12
2023-05-14T00:42:02.443Z,12.16
2023-05-14T00:44:29.751Z,11.92
2023-05-14T00:46:57.100Z,11.98
2023-05-14T00:49:24.361Z,11.92
2023-05-14T00:51:51.707Z,11.94
2023-05-14T00:54:19.054Z,11.88
2023-05-14T00:56:46.606Z,11.94
2023-05-14T00:59:14.030Z,11.89
2023-05-14T01:01:41.292Z,11.92
2023-05-14T01:04:08.620Z,11.87
2023-05-14T01:06:54.232Z,11.85
2023-05-14T01:09:24.549Z,11.91
2023-05-14T01:12:03.369Z,11.95
2023-05-14T01:14:57.356Z,11.88
2023-05-14T01:17:26.457Z,11.92
2023-05-14T01:19:53.688Z,11.92
2023-05-14T01:22:20.994Z,11.84
2023-05-14T01:24:48.244Z,11.81
2023-05-14T01:27:27.674Z,11.75
2023-05-14T01:30:29.839Z,11.96
2023-05-14T01:33:00.631Z,11.99
2023-05-14T01:35:29.429Z,11.89
2023-05-14T01:37:57.755Z,11.92
2023-05-14T01:40:25.631Z,11.99
2023-05-14T01:42:53.699Z,12.05
2023-05-14T01:45:21.654Z,12.01
2023-05-14T01:47:49.102Z,12.06
2023-05-14T01:50:16.800Z,12.04
2023-05-14T01:52:44.085Z,11.96
2023-05-14T01:55:11.504Z,11.98
2023-05-14T01:57:38.770Z,12.01
2023-05-14T02:00:07.118Z,12.18
2023-05-14T02:02:41.180Z,12.02
2023-05-14T02:05:11.352Z,11.96
2023-05-14T02:07:38.831Z,12.08
2023-05-14T02:10:06.845Z,11.98
2023-05-14T02:12:34.318Z,11.94
2023-05-14T02:15:01.750Z,11.88
2023-05-14T02:17:29.210Z,11.87
2023-05-14T02:19:56.484Z,11.88
2023-05-14T02:22:23.747Z,12.05
2023-05-14T02:24:51.600Z,12.09
2023-05-14T02:27:19.383Z,12.06
2023-05-14T02:29:46.617Z,11.98
2023-05-14T02:32:14.612Z,11.96
2023-05-14T02:34:41.868Z,11.91
2023-05-14T02:37:09.218Z,11.84
2023-05-14T02:39:36.499Z,11.81
2023-05-14T02:42:04.134Z,11.88
2023-05-14T02:44:32.489Z,11.75
2023-05-14T02:46:59.984Z,11.75
2023-05-14T02:49:27.233Z,11.85
2023-05-14T02:51:54.575Z,11.77
2023-05-14T02:54:21.829Z,11.73
2023-05-14T02:56:49.167Z,11.74
2023-05-14T02:59:16.462Z,11.68
2023-05-14T03:01:44.359Z,11.79
2023-05-14T03:04:12.094Z,11.85
2023-05-14T03:06:39.365Z,11.75
2023-05-14T03:09:07.680Z,11.74
2023-05-14T03:11:35.065Z,11.77
2023-05-14T03:14:02.308Z,11.87
2023-05-14T03:16:30.101Z,11.71
2023-05-14T03:18:57.364Z,11.64
2023-05-14T03:21:25.022Z,11.56
2023-05-14T03:23:53.036Z,11.53
2023-05-14T03:26:21.643Z,11.47
2023-05-14T03:28:48.950Z,11.58
2023-05-14T03:31:16.298Z,11.63
2023-05-14T03:33:43.684Z,11.50
2023-05-14T03:36:11.123Z,11.56
2023-05-14T03:38:38.399Z,11.60
2023-05-14T03:41:05.671Z,11.60
2023-05-14T03:43:32.873Z,11.64
2023-05-14T03:46:00.150Z,11.67
2023-05-14T03:48:27.813Z,11.61
2023-05-14T03:50:55.339Z,11.64
2023-05-14T03:53:22.588Z,11.67
2023-05-14T03:55:50.157Z,11.67
2023-05-14T03:58:17.547Z,11.67
2023-05-14T04:00:44.971Z,11.68
2023-05-14T04:03:12.499Z,11.65
2023-05-14T04:05:39.884Z,11.63
2023-05-14T04:08:07.316Z,11.68
2023-05-14T04:10:34.658Z,11.71
2023-05-14T04:13:01.835Z,11.58
2023-05-14T04:15:33.151Z,11.61
2023-05-14T04:18:00.471Z,11.60
2023-05-14T04:20:28.128Z,11.48
2023-05-14T04:22:55.832Z,11.51
2023-05-14T04:25:24.193Z,11.50
2023-05-14T04:27:51.464Z,11.43
2023-05-14T04:30:18.813Z,11.56
2023-05-14T04:32:46.240Z,11.53
2023-05-14T04:35:13.539Z,11.51
2023-05-14T04:37:41.533Z,11.46
2023-05-14T04:40:11.300Z,11.47
2023-05-14T04:42:38.975Z,11.50
2023-05-14T04:45:06.856Z,11.41
2023-05-14T04:47:34.318Z,11.38
2023-05-14T04:50:01.705Z,11.46
2023-05-14T04:52:29.020Z,11.40
2023-05-14T04:54:56.997Z,11.37
2023-05-14T04:57:24.352Z,11.56
2023-05-14T04:59:51.594Z,11.51
2023-05-14T05:02:18.906Z,11.46
2023-05-14T05:04:47.242Z,11.47
2023-05-14T05:07:14.745Z,11.51
2023-05-14T05:09:42.946Z,11.48
2023-05-14T05:12:10.569Z,11.44
2023-05-14T05:14:37.841Z,11.54
2023-05-14T05:17:05.242Z,11.44
2023-05-14T05:19:43.035Z,11.43
2023-05-14T05:22:11.869Z,11.48
2023-05-14T05:24:39.074Z,11.44
2023-05-14T05:27:06.366Z,11.50
2023-05-14T05:29:35.246Z,11.37
2023-05-14T05:32:02.575Z,11.31
2023-05-14T05:34:30.087Z,11.27
2023-05-14T05:36:57.430Z,11.37
2023-05-14T05:39:25.173Z,11.41
2023-05-14T05:41:52.498Z,11.40
2023-05-14T05:44:19.733Z,11.41
2023-05-14T05:46:47.036Z,11.34
2023-05-14T05:49:14.301Z,11.20
2023-05-14T05:51:41.630Z,11.34
2023-05-14T05:54:08.818Z,11.23
2023-05-14T05:56:36.096Z,11.30
2023-05-14T05:59:03.986Z,11.31
2023-05-14T06:01:31.482Z,11.31
2023-05-14T06:03:58.706Z,11.31
2023-05-14T06:06:26.056Z,11.30
2023-05-14T06:08:53.290Z,11.31
2023-05-14T06:11:21.905Z,11.31
2023-05-14T06:13:49.249Z,11.31
2023-05-14T06:16:16.667Z,11.24
2023-05-14T06:18:44.003Z,11.36
2023-05-14T06:21:11.429Z,11.33
2023-05-14T06:23:38.683Z,11.38
2023-05-14T06:26:06.061Z,11.44
2023-05-14T06:28:33.366Z,11.33
2023-05-14T06:31:00.812Z,11.33
2023-05-14T06:33:31.446Z,11.20
2023-05-14T06:36:03.615Z,11.16
2023-05-14T06:38:30.972Z,11.17
2023-05-14T06:40:58.200Z,11.15
2023-05-14T06:43:25.709Z,11.22
2023-05-14T06:45:52.980Z,11.26
2023-05-14T06:48:20.817Z,11.26
2023-05-14T06:50:48.545Z,11.20
2023-05-14T06:53:15.898Z,11.19
2023-05-14T06:55:43.184Z,11.26
2023-05-14T06:58:10.676Z,11.24
2023-05-14T07:00:37.896Z,11.22
2023-05-14T07:03:05.294Z,11.17
2023-05-14T07:05:32.672Z,11.20
2023-05-14T07:07:59.972Z,11.16
2023-05-14T07:10:27.242Z,11.10
2023-05-14T07:12:54.682Z,11.19
2023-05-14T07:15:21.857Z,11.23
2023-05-14T07:17:49.364Z,11.22
2023-05-14T07:20:16.666Z,11.26
2023-05-14T07:22:43.959Z,11.27
2023-05-14T07:25:11.205Z,11.30
2023-05-14T07:27:38.726Z,11.24
2023-05-14T07:30:07.351Z,11.26
2023-05-14T07:32:34.676Z,11.22
2023-05-14T07:35:01.958Z,11.30
2023-05-14T07:37:29.351Z,11.36
2023-05-14T07:39:56.648Z,11.22
2023-05-14T07:42:35.237Z,11.23
2023-05-14T07:45:04.363Z,11.29
2023-05-14T07:47:31.784Z,11.31
2023-05-14T07:49:59.373Z,11.36
2023-05-14T07:52:26.698Z,11.40
2023-05-14T07:54:54.126Z,11.33
2023-05-14T07:57:22.115Z,11.27
2023-05-14T07:59:49.608Z,11.27
2023-05-14T08:02:17.804Z,11.31
2023-05-14T08:04:45.466Z,11.30
2023-05-14T08:07:12.733Z,11.26
2023-05-14T08:09:39.993Z,11.16
2023-05-14T08:12:07.691Z,11.17
2023-05-14T08:14:35.095Z,11.17
2023-05-14T08:17:02.406Z,11.23
2023-05-14T08:19:29.677Z,11.24
2023-05-14T08:21:57.425Z,11.27
2023-05-14T08:24:24.809Z,11.23
2023-05-14T08:26:52.534Z,11.30
2023-05-14T08:29:19.828Z,11.36
2023-05-14T08:31:47.299Z,11.37
2023-05-14T08:34:14.627Z,11.33
2023-05-14T08:36:41.861Z,11.27
2023-05-14T08:39:09.253Z,11.17
2023-05-14T08:41:37.672Z,11.20
2023-05-14T08:44:15.045Z,11.12
2023-05-14T08:46:42.426Z,11.19
2023-05-14T08:49:25.455Z,11.17
2023-05-14T08:51:52.777Z,11.30
2023-05-14T08:54:22.504Z,11.34
2023-05-14T08:56:51.714Z,11.30
2023-05-14T08:59:19.773Z,11.36
2023-05-14T09:01:48.190Z,11.40
2023-05-14T09:04:16.172Z,11.37
2023-05-14T09:06:43.568Z,11.46
2023-05-14T09:09:11.479Z,11.51
2023-05-14T09:11:42.657Z,11.50
2023-05-14T09:14:10.103Z,11.50
2023-05-14T09:16:37.437Z,11.53
2023-05-14T09:19:05.459Z,11.61
2023-05-14T09:21:33.577Z,11.71
2023-05-14T09:24:01.060Z,11.70
2023-05-14T09:26:28.367Z,11.68
2023-05-14T09:28:56.444Z,11.65
2023-05-14T09:31:23.839Z,11.63
2023-05-14T09:33:51.732Z,11.74
2023-05-14T09:36:19.269Z,11.78
2023-05-14T09:38:46.643Z,11.63
2023-05-14T09:41:13.894Z,11.67
2023-05-14T09:43:41.191Z,11.73
2023-05-14T09:46:08.415Z,11.65
2023-05-14T09:48:35.703Z,11.67
2023-05-14T09:51:04.636Z,11.67
2023-05-14T09:53:33.067Z,11.58
2023-05-14T09:56:00.434Z,11.65
2023-05-14T09:58:27.731Z,11.54
2023-05-14T10:00:54.981Z,11.64
2023-05-14T10:03:22.250Z,11.63
2023-05-14T10:05:49.575Z,11.63
2023-05-14T10:08:26.785Z,11.70
2023-05-14T10:10:54.585Z,11.74
2023-05-14T10:13:24.184Z,11.74
2023-05-14T10:16:09.976Z,11.71
2023-05-14T10:18:42.942Z,11.67
2023-05-14T10:21:10.434Z,11.71
2023-05-14T10:23:38.050Z,11.61
2023-05-14T10:26:05.482Z,11.65
2023-05-14T10:28:32.729Z,11.70
2023-05-14T10:31:00.862Z,11.71
2023-05-14T10:33:28.288Z,11.63
2023-05-14T10:36:06.578Z,11.61
2023-05-14T10:38:34.373Z,11.67
2023-05-14T10:41:05.121Z,11.73
2023-05-14T10:43:37.139Z,11.75
2023-05-14T10:46:05.197Z,11.77
2023-05-14T10:48:32.875Z,11.82
2023-05-14T10:51:00.266Z,11.85
2023-05-14T10:53:34.851Z,11.87
2023-05-14T10:56:09.291Z,11.81
2023-05-14T10:58:40.539Z,11.79
2023-05-14T11:01:08.410Z,11.77
2023-05-14T11:03:41.172Z,11.82
2023-05-14T11:06:09.393Z,11.78
2023-05-14T11:08:37.018Z,11.87
2023-05-14T11:11:04.360Z,11.89
2023-05-14T11:13:31.573Z,11.88
2023-05-14T11:16:02.287Z,11.81
2023-05-14T11:18:40.923Z,11.74
2023-05-14T11:21:08.292Z,11.74
2023-05-14T11:23:35.506Z,11.77
2023-05-14T11:26:02.907Z,11.71
2023-05-14T11:28:30.177Z,11.78
2023-05-14T11:30:57.454Z,11.82
2023-05-14T11:33:24.824Z,11.74
2023-05-14T11:35:52.118Z,11.68
2023-05-14T11:38:19.952Z,11.71
2023-05-14T11:40:58.152Z,11.75
2023-05-14T11:43:26.277Z,11.79
2023-05-14T11:45:54.336Z,11.71
2023-05-14T11:48:22.177Z,11.75
2023-05-14T11:50:50.975Z,11.74
2023-05-14T11:53:30.091Z,11.71
2023-05-14T11:55:58.011Z,11.68
2023-05-14T11:58:25.649Z,11.71
2023-05-14T12:00:53.462Z,11.74
2023-05-14T12:03:26.608Z,11.78
2023-05-14T12:06:00.489Z,11.79
2023-05-14T12:08:31.505Z,11.79
2023-05-14T12:10:59.521Z,11.88
2023-05-14T12:13:27.916Z,11.82
2023-05-14T12:15:59.130Z,11.95
2023-05-14T12:18:27.576Z,12.02
2023-05-14T12:20:54.978Z,12.01
2023-05-14T12:23:26.932Z,12.02
2023-05-14T12:25:54.213Z,11.96
2023-05-14T12:28:23.244Z,12.01
2023-05-14T12:30:56.601Z,11.98
2023-05-14T12:33:24.350Z,11.99
2023-05-14T12:35:53.717Z,11.96
2023-05-14T12:38:21.081Z,11.99
2023-05-14T12:40:48.411Z,12.06
2023-05-14T12:43:15.745Z,12.02
2023-05-14T12:45:43.012Z,12.01
2023-05-14T12:48:10.398Z,12.06
2023-05-14T12:50:37.930Z,12.01
2023-05-14T12:53:05.730Z,11.98
2023-05-14T12:55:34.389Z,12.06
2023-05-14T12:58:01.648Z,11.92
2023-05-14T13:00:28.929Z,11.99
2023-05-14T13:02:56.303Z,11.99
2023-05-14T13:05:23.956Z,12.05
2023-05-14T13:07:52.762Z,11.96
2023-05-14T13:10:20.078Z,12.06
2023-05-14T13:12:47.403Z,12.01
2023-05-14T13:15:14.693Z,12.09
2023-05-14T13:17:42.097Z,12.11
2023-05-14T13:20:09.753Z,12.11
2023-05-14T13:22:37.026Z,12.01
2023-05-14T13:25:05.107Z,11.99
2023-05-14T13:27:32.470Z,12.08
2023-05-14T13:29:59.906Z,12.05
2023-05-14T13:32:27.298Z,12.16
2023-05-14T13:34:54.525Z,12.12
2023-05-14T13:37:21.812Z,12.18
2023-05-14T13:39:51.247Z,12.08
2023-05-14T13:42:18.765Z,12.14
2023-05-14T13:44:46.021Z,12.21
2023-05-14T13:47:13.361Z,12.28
2023-05-14T13:49:40.744Z,12.29
2023-05-14T13:52:07.981Z,12.33
2023-05-14T13:54:35.202Z,12.30
2023-05-14T13:57:02.509Z,12.25
2023-05-14T13:59:29.825Z,12.37
2023-05-14T14:01:57.222Z,12.30
2023-05-14T14:04:28.865Z,12.28
2023-05-14T14:06:56.407Z,12.21
2023-05-14T14:09:23.936Z,12.25
2023-05-14T14:11:51.315Z,12.25
2023-05-14T14:14:18.674Z,12.21
2023-05-14T14:16:46.072Z,12.19
2023-05-14T14:19:14.457Z,12.22
2023-05-14T14:21:43.385Z,12.21
2023-05-14T14:24:10.735Z,12.18
2023-05-14T14:26:38.060Z,12.14
2023-05-14T14:29:05.400Z,12.12
2023-05-14T14:31:32.691Z,12.15
2023-05-14T14:33:59.933Z,12.18
2023-05-14T14:36:27.238Z,12.15
2023-05-14T14:38:54.468Z,12.04
2023-05-14T14:41:22.383Z,11.99
2023-05-14T14:43:49.796Z,11.95
2023-05-14T14:46:17.215Z,12.05
2023-05-14T14:48:44.600Z,12.12
2023-05-14T14:51:12.145Z,12.06
2023-05-14T14:53:40.505Z,12.11
2023-05-14T14:56:07.832Z,12.12
2023-05-14T14:58:35.100Z,12.19
2023-05-14T15:01:02.489Z,12.14
2023-05-14T15:03:30.077Z,12.12
2023-05-14T15:05:57.622Z,12.11
2023-05-14T15:08:26.598Z,12.12
2023-05-14T15:10:54.975Z,12.19
2023-05-14T15:13:22.262Z,12.16
2023-05-14T15:15:50.420Z,12.16
2023-05-14T15:18:17.721Z,12.11
2023-05-14T15:20:45.039Z,12.18
2023-05-14T15:23:12.338Z,12.11
2023-05-14T15:25:39.830Z,12.18
2023-05-14T15:28:09.885Z,12.14
2023-05-14T15:30:37.383Z,12.16
2023-05-14T15:33:04.711Z,12.12
2023-05-14T15:35:32.108Z,12.19
2023-05-14T15:37:59.519Z,12.15
2023-05-14T15:40:27.400Z,12.11
2023-05-14T15:42:54.984Z,12.16
2023-05-14T15:45:22.334Z,12.19
2023-05-14T15:47:49.736Z,12.35
2023-05-14T15:50:17.190Z,12.28
2023-05-14T15:52:44.476Z,12.36
2023-05-14T15:55:11.941Z,12.32
2023-05-14T15:57:39.295Z,12.25
2023-05-14T16:00:11.184Z,12.29
2023-05-14T16:02:39.331Z,12.32
2023-05-14T16:05:07.368Z,12.33
2023-05-14T16:07:34.739Z,12.24
2023-05-14T16:10:02.165Z,12.24
2023-05-14T16:12:29.606Z,12.26
2023-05-14T16:14:57.711Z,12.24
2023-05-14T16:17:26.630Z,12.26
2023-05-14T16:19:56.309Z,12.22
2023-05-14T16:22:24.215Z,12.30
2023-05-14T16:24:51.436Z,12.24
2023-05-14T16:27:19.255Z,12.19
2023-05-14T16:29:47.039Z,12.33
2023-05-14T16:32:14.556Z,12.37
2023-05-14T16:34:41.947Z,12.40
2023-05-14T16:37:10.787Z,12.47
2023-05-14T16:39:39.924Z,12.43
2023-05-14T16:42:07.210Z,12.29
2023-05-14T16:44:34.487Z,12.25
2023-05-14T16:47:01.792Z,12.22
2023-05-14T16:49:29.155Z,12.19
2023-05-14T16:51:56.386Z,12.09
2023-05-14T16:54:23.839Z,12.24
2023-05-14T16:56:51.140Z,12.18
2023-05-14T16:59:18.544Z,12.12
2023-05-14T17:01:47.967Z,12.08
2023-05-14T17:04:15.687Z,12.11
2023-05-14T17:06:43.041Z,12.08
2023-05-14T17:09:10.396Z,12.14
2023-05-14T17:11:37.662Z,12.12
2023-05-14T17:14:05.032Z,12.16
2023-05-14T17:16:32.371Z,12.19
2023-05-14T17:18:59.737Z,12.22
2023-05-14T17:21:27.132Z,12.19
2023-05-14T17:23:54.511Z,12.25
2023-05-14T17:26:21.852Z,12.22
2023-05-14T17:28:49.211Z,12.19
2023-05-14T17:31:16.520Z,12.19
2023-05-14T17:33:44.022Z,12.11
2023-05-14T17:36:11.255Z,12.21
2023-05-14T17:38:39.155Z,12.21
2023-05-14T17:41:06.422Z,12.14
2023-05-14T17:43:33.733Z,12.05
2023-05-14T17:46:01.088Z,11.99
2023-05-14T17:48:28.489Z,11.98
2023-05-14T17:50:55.757Z,12.01
2023-05-14T17:53:23.101Z,12.01
2023-05-14T17:55:50.357Z,11.96
2023-05-14T17:58:17.688Z,11.92
2023-05-14T18:00:45.008Z,11.96
2023-05-14T18:03:14.279Z,11.92
2023-05-14T18:05:41.733Z,11.89
2023-05-14T18:08:09.803Z,11.81
2023-05-14T18:10:37.224Z,11.87
2023-05-14T18:13:04.656Z,11.85
2023-05-14T18:15:31.910Z,11.84
2023-05-14T18:17:59.263Z,11.81
2023-05-14T18:20:26.577Z,11.92
2023-05-14T18:22:53.925Z,11.91
2023-05-14T18:25:21.209Z,11.82
2023-05-14T18:27:48.546Z,11.87
2023-05-14T18:30:16.053Z,11.92
2023-05-14T18:32:44.596Z,11.94
2023-05-14T18:35:12.603Z,11.99
2023-05-14T18:37:40.179Z,11.91
2023-05-14T18:40:09.087Z,11.94
2023-05-14T18:42:36.441Z,12.04
2023-05-14T18:45:04.546Z,11.85
2023-05-14T18:47:32.790Z,11.88
2023-05-14T18:50:01.999Z,11.95
2023-05-14T18:52:29.817Z,12.01
2023-05-14T18:54:57.135Z,12.05
2023-05-14T18:57:24.479Z,11.96
2023-05-14T18:59:51.710Z,12.02
2023-05-14T19:02:19.000Z,12.12
2023-05-14T19:07:16.801Z,11.98
2023-05-14T19:09:44.041Z,12.14
2023-05-14T19:12:11.443Z,12.18
2023-05-14T19:14:38.658Z,12.12
2023-05-14T19:17:06.030Z,12.16
2023-05-14T19:19:33.247Z,12.19
2023-05-14T19:22:00.682Z,12.06
2023-05-14T19:24:27.909Z,11.99
2023-05-14T19:26:55.781Z,12.14
2023-05-14T19:29:23.057Z,12.12
2023-05-14T19:31:50.400Z,12.16
2023-05-14T19:34:17.636Z,12.24
2023-05-14T19:36:44.956Z,12.22
2023-05-14T19:39:12.265Z,12.33
2023-05-14T19:41:39.661Z,12.24
2023-05-14T19:44:06.933Z,12.24
2023-05-14T19:46:34.303Z,12.22
2023-05-14T19:49:01.602Z,12.15
2023-05-14T19:51:28.943Z,12.11
2023-05-14T19:53:56.207Z,12.21
2023-05-14T19:56:24.740Z,12.15
2023-05-14T19:58:54.001Z,12.11
2023-05-14T20:01:21.309Z,12.16
2023-05-14T20:03:48.704Z,12.15
2023-05-14T20:06:17.459Z,12.16
2023-05-14T20:08:47.544Z,12.21
2023-05-14T20:11:15.815Z,12.14
2023-05-14T20:13:43.093Z,12.09
2023-05-14T20:16:10.619Z,12.16
2023-05-14T20:18:37.945Z,12.24
2023-05-14T20:21:05.626Z,12.25
2023-05-14T20:23:33.706Z,12.35
2023-05-14T20:26:04.159Z,12.50
2023-05-14T20:28:31.575Z,12.52
2023-05-14T20:30:59.129Z,12.35
2023-05-14T20:33:27.213Z,12.39
2023-05-14T20:35:54.436Z,12.39
2023-05-14T20:38:22.046Z,12.46
2023-05-14T20:40:49.339Z,12.39
2023-05-14T20:43:16.656Z,12.33
2023-05-14T20:45:43.900Z,12.29
2023-05-14T20:48:15.011Z,12.28
2023-05-14T20:50:43.056Z,12.32
2023-05-14T20:53:10.392Z,12.36
2023-05-14T20:55:37.739Z,12.37
2023-05-14T20:58:04.985Z,12.30
2023-05-14T21:00:32.260Z,12.25
2023-05-14T21:03:02.430Z,12.28
2023-05-14T21:05:29.815Z,12.37
2023-05-14T21:07:57.080Z,12.33
2023-05-14T21:10:24.722Z,12.47
2023-05-14T21:12:52.475Z,12.49
2023-05-14T21:15:19.778Z,12.46
2023-05-14T21:17:47.043Z,12.33
2023-05-14T21:20:15.666Z,12.29
2023-05-14T21:22:42.957Z,12.29
2023-05-14T21:25:10.429Z,12.24
2023-05-14T21:27:37.722Z,12.32
2023-05-14T21:30:05.646Z,12.42
2023-05-14T21:32:33.006Z,12.46
2023-05-14T21:35:00.482Z,12.49
2023-05-14T21:37:27.696Z,12.46
2023-05-14T21:39:55.199Z,12.57
2023-05-14T21:42:22.435Z,12.30
2023-05-14T21:44:49.770Z,12.39
2023-05-14T21:47:16.991Z,12.46
2023-05-14T21:49:44.340Z,12.42
2023-05-14T21:52:11.734Z,12.43
2023-05-14T21:54:39.057Z,12.50
2023-05-14T21:57:06.552Z,12.37
2023-05-14T21:59:34.017Z,12.26
2023-05-14T22:04:31.379Z,12.25
2023-05-14T22:06:58.643Z,12.26
2023-05-14T22:09:25.994Z,12.19
2023-05-14T22:11:53.268Z,12.29
2023-05-14T22:14:20.679Z,12.21
2023-05-14T22:16:47.943Z,12.35
2023-05-14T22:19:18.460Z,12.40
2023-05-14T22:21:45.898Z,12.49
2023-05-14T22:24:13.131Z,12.57
2023-05-14T22:26:40.389Z,12.61
2023-05-14T22:29:07.698Z,12.52
2023-05-14T22:31:35.159Z,12.42
2023-05-14T22:34:02.444Z,12.40
2023-05-14T22:36:29.772Z,12.37
2023-05-14T22:38:57.031Z,12.37
2023-05-14T22:41:24.412Z,12.26
2023-05-14T22:43:51.705Z,12.29
2023-05-14T22:46:19.098Z,12.22
2023-05-14T22:48:49.021Z,12.08
2023-05-14T22:51:16.688Z,12.11
2023-05-14T22:53:43.939Z,12.18
2023-05-14T22:56:11.259Z,12.21
2023-05-14T22:58:38.487Z,12.18
2023-05-14T23:01:06.043Z,12.14
2023-05-14T23:03:33.287Z,12.16
2023-05-14T23:06:00.543Z,12.24
2023-05-14T23:08:27.797Z,12.14
2023-05-14T23:10:55.177Z,12.09
2023-05-14T23:13:22.445Z,11.99
2023-05-14T23:15:49.763Z,12.22
2023-05-14T23:18:17.327Z,12.32
2023-05-14T23:20:44.783Z,12.32
2023-05-14T23:23:12.050Z,12.29
2023-05-14T23:25:39.382Z,12.25
2023-05-14T23:28:06.655Z,12.33
2023-05-14T23:30:33.962Z,12.35
2023-05-14T23:33:02.501Z,12.32
2023-05-14T23:35:29.811Z,12.40
2023-05-14T23:37:57.038Z,12.39
2023-05-14T23:40:24.319Z,12.49
2023-05-14T23:42:51.575Z,12.59
2023-05-14T23:45:18.872Z,12.59
2023-05-14T23:47:46.240Z,12.43
2023-05-14T23:50:13.635Z,12.47
2023-05-14T23:52:40.859Z,12.49
2023-05-14T23:55:08.457Z,12.45
2023-05-14T23:57:35.728Z,12.40
